createdAt,value
2023-04-19T00:01:17.169Z,6.03
2023-04-19T00:03:44.123Z,6.60
2023-04-19T00:06:10.992Z,5.10
2023-04-19T00:08:37.683Z,5.60
2023-04-19T00:11:04.295Z,6.30
2023-04-19T00:13:30.930Z,5.90
2023-04-19T00:15:57.560Z,6.40
2023-04-19T00:18:24.368Z,5.67
2023-04-19T00:20:51.191Z,6.50
2023-04-19T00:23:18.052Z,6.17
2023-04-19T00:25:46.474Z,5.43
2023-04-19T00:28:13.068Z,6.97
2023-04-19T00:30:39.672Z,5.80
2023-04-19T00:33:12.577Z,5.97
2023-04-19T00:35:42.139Z,5.57
2023-04-19T00:38:08.903Z,5.77
2023-04-19T00:40:37.835Z,4.70
2023-04-19T00:43:04.634Z,5.40
2023-04-19T00:45:32.841Z,6.37
2023-04-19T00:48:01.101Z,5.47
2023-04-19T00:50:27.850Z,5.43
2023-04-19T00:52:56.380Z,5.73
2023-04-19T00:55:24.495Z,5.90
2023-04-19T00:57:52.418Z,5.10
2023-04-19T01:00:19.963Z,4.63
2023-04-19T01:02:47.678Z,4.87
2023-04-19T01:05:14.714Z,4.63
2023-04-19T01:07:41.553Z,4.23
2023-04-19T01:10:08.431Z,4.73
2023-04-19T01:12:35.131Z,4.60
2023-04-19T01:15:02.733Z,4.27
2023-04-19T01:17:31.569Z,4.00
2023-04-19T01:20:02.739Z,4.27
2023-04-19T01:22:30.495Z,4.27
2023-04-19T01:24:57.214Z,3.90
2023-04-19T01:27:24.039Z,3.33
2023-04-19T01:29:50.791Z,4.80
2023-04-19T01:32:17.512Z,4.03
2023-04-19T01:34:44.251Z,3.50
2023-04-19T01:37:10.909Z,3.60
2023-04-19T01:39:37.565Z,3.20
2023-04-19T01:42:04.428Z,3.10
2023-04-19T01:44:31.527Z,4.00
2023-04-19T01:46:58.271Z,3.13
2023-04-19T01:49:24.993Z,3.63
2023-04-19T01:51:51.773Z,3.77
2023-04-19T01:54:18.547Z,3.13
2023-04-19T01:56:45.209Z,2.90
2023-04-19T01:59:11.949Z,3.20
2023-04-19T02:01:38.707Z,2.90
2023-04-19T02:04:05.640Z,3.53
2023-04-19T02:06:32.391Z,3.23
2023-04-19T02:08:59.151Z,3.33
2023-04-19T02:11:25.763Z,3.63
2023-04-19T02:13:52.519Z,3.90
2023-04-19T02:16:19.213Z,3.53
2023-04-19T02:18:46.747Z,3.70
2023-04-19T02:21:13.655Z,4.53
2023-04-19T02:23:40.332Z,4.00
2023-04-19T02:26:07.027Z,3.73
2023-04-19T02:28:33.703Z,3.70
2023-04-19T02:31:05.716Z,4.37
2023-04-19T02:33:32.462Z,3.93
2023-04-19T02:35:59.069Z,3.13
2023-04-19T02:38:25.731Z,3.30
2023-04-19T02:40:52.324Z,4.50
2023-04-19T02:43:18.915Z,2.80
2023-04-19T02:45:45.603Z,3.67
2023-04-19T02:48:12.342Z,3.77
2023-04-19T02:50:39.018Z,3.40
2023-04-19T02:53:05.890Z,3.37
2023-04-19T02:55:33.308Z,3.20
2023-04-19T02:58:00.012Z,3.43
2023-04-19T03:00:26.959Z,3.10
2023-04-19T03:02:53.789Z,4.00
2023-04-19T03:05:20.731Z,3.67
2023-04-19T03:07:47.353Z,2.77
2023-04-19T03:10:14.063Z,3.20
2023-04-19T03:12:40.684Z,3.10
2023-04-19T03:15:08.634Z,3.60
2023-04-19T03:17:35.908Z,4.00
2023-04-19T03:20:02.763Z,3.10
2023-04-19T03:22:29.358Z,3.43
2023-04-19T03:24:56.003Z,3.50
2023-04-19T03:27:22.600Z,3.50
2023-04-19T03:29:49.416Z,3.30
2023-04-19T03:32:16.028Z,2.80
2023-04-19T03:34:42.665Z,3.10
2023-04-19T03:37:09.265Z,3.53
2023-04-19T03:39:35.916Z,3.13
2023-04-19T03:42:03.005Z,2.80
2023-04-19T03:44:33.262Z,3.30
2023-04-19T03:46:59.952Z,3.30
2023-04-19T03:49:26.594Z,3.07
2023-04-19T03:51:53.239Z,3.23
2023-04-19T03:54:19.921Z,2.53
2023-04-19T03:56:46.523Z,2.90
2023-04-19T03:59:13.118Z,3.60
2023-04-19T04:01:42.422Z,2.80
2023-04-19T04:04:09.489Z,3.40
2023-04-19T04:06:36.326Z,3.33
2023-04-19T04:09:03.781Z,3.30
2023-04-19T04:11:30.901Z,3.53
2023-04-19T04:13:57.672Z,3.20
2023-04-19T04:16:24.341Z,3.60
2023-04-19T04:18:50.990Z,2.83
2023-04-19T04:21:17.622Z,3.00
2023-04-19T04:23:44.224Z,3.17
2023-04-19T04:26:11.068Z,2.90
2023-04-19T04:28:38.067Z,3.60
2023-04-19T04:31:04.804Z,3.40
2023-04-19T04:33:31.534Z,3.40
2023-04-19T04:35:59.106Z,3.00
2023-04-19T04:38:25.840Z,2.97
2023-04-19T04:40:53.872Z,3.67
2023-04-19T04:43:25.640Z,2.87
2023-04-19T04:45:55.561Z,2.80
2023-04-19T04:48:22.405Z,2.57
2023-04-19T04:50:49.066Z,3.00
2023-04-19T04:53:15.854Z,2.57
2023-04-19T04:55:42.475Z,2.40
2023-04-19T04:58:09.092Z,2.70
2023-04-19T05:00:35.843Z,2.37
2023-04-19T05:03:03.045Z,2.33
2023-04-19T05:05:30.381Z,2.10
2023-04-19T05:07:57.017Z,2.13
2023-04-19T05:10:23.772Z,2.00
2023-04-19T05:12:50.548Z,2.37
2023-04-19T05:15:17.192Z,2.80
2023-04-19T05:17:44.009Z,2.10
2023-04-19T05:20:10.962Z,2.40
2023-04-19T05:22:37.972Z,2.27
2023-04-19T05:25:05.927Z,1.83
2023-04-19T05:27:32.898Z,1.90
2023-04-19T05:29:59.567Z,2.13
2023-04-19T05:32:26.267Z,1.77
2023-04-19T05:34:52.994Z,1.60
2023-04-19T05:37:19.756Z,2.33
2023-04-19T05:39:46.482Z,2.23
2023-04-19T05:42:13.091Z,1.90
2023-04-19T05:44:39.819Z,3.67
2023-04-19T05:47:06.523Z,3.20
2023-04-19T05:49:33.135Z,3.67
2023-04-19T05:51:59.730Z,2.07
2023-04-19T05:54:28.096Z,1.90
2023-04-19T05:56:54.871Z,2.03
2023-04-19T05:59:21.576Z,2.00
2023-04-19T06:01:48.283Z,2.03
2023-04-19T06:04:15.536Z,4.80
2023-04-19T06:06:42.623Z,1.80
2023-04-19T06:09:09.295Z,1.80
2023-04-19T06:11:46.994Z,1.43
2023-04-19T06:14:23.409Z,1.93
2023-04-19T06:16:50.632Z,1.87
2023-04-19T06:19:17.268Z,1.23
2023-04-19T06:21:43.910Z,1.80
2023-04-19T06:24:10.907Z,1.27
2023-04-19T06:26:37.500Z,1.43
2023-04-19T06:29:04.283Z,1.40
2023-04-19T06:31:31.014Z,1.80
2023-04-19T06:33:57.681Z,1.40
2023-04-19T06:36:24.280Z,1.20
2023-04-19T06:38:50.891Z,1.63
2023-04-19T06:41:17.936Z,1.40
2023-04-19T06:43:44.981Z,1.40
2023-04-19T06:46:14.083Z,1.23
2023-04-19T06:48:41.092Z,1.20
2023-04-19T06:51:07.913Z,1.23
2023-04-19T06:53:35.569Z,1.17
2023-04-19T06:56:06.373Z,0.90
2023-04-19T06:58:34.831Z,1.23
2023-04-19T07:01:04.900Z,1.07
2023-04-19T07:03:31.944Z,0.90
2023-04-19T07:05:58.738Z,0.83
2023-04-19T07:08:34.877Z,0.87
2023-04-19T07:11:09.384Z,0.90
2023-04-19T07:13:36.054Z,0.70
2023-04-19T07:16:05.674Z,0.97
2023-04-19T07:18:32.751Z,0.77
2023-04-19T07:20:59.427Z,1.10
2023-04-19T07:23:26.053Z,1.10
2023-04-19T07:25:52.649Z,1.10
2023-04-19T07:28:19.248Z,0.70
2023-04-19T07:30:46.285Z,0.90
2023-04-19T07:33:13.103Z,0.90
2023-04-19T07:35:40.304Z,0.67
2023-04-19T07:38:06.990Z,0.73
2023-04-19T07:40:33.605Z,0.80
2023-04-19T07:43:00.244Z,0.83
2023-04-19T07:45:26.906Z,0.60
2023-04-19T07:47:53.553Z,0.80
2023-04-19T07:50:21.987Z,0.70
2023-04-19T07:52:49.923Z,0.60
2023-04-19T07:55:16.596Z,1.13
2023-04-19T07:57:47.985Z,0.90
2023-04-19T08:00:18.785Z,0.60
2023-04-19T08:02:49.182Z,0.80
2023-04-19T08:05:20.395Z,0.63
2023-04-19T08:07:47.223Z,0.70
2023-04-19T08:10:14.202Z,0.87
2023-04-19T08:12:50.678Z,0.80
2023-04-19T08:16:05.066Z,0.77
2023-04-19T08:18:10.482Z,0.63
2023-04-19T08:20:37.156Z,0.73
2023-04-19T08:23:17.989Z,0.70
2023-04-19T08:25:47.912Z,0.70
2023-04-19T08:28:14.613Z,0.70
2023-04-19T08:30:41.271Z,0.60
2023-04-19T08:33:08.295Z,0.97
2023-04-19T08:35:36.224Z,0.83
2023-04-19T08:38:04.869Z,0.80
2023-04-19T08:40:31.846Z,0.90
2023-04-19T08:42:58.823Z,0.90
2023-04-19T08:45:29.192Z,1.10
2023-04-19T08:48:01.492Z,0.97
2023-04-19T08:50:35.439Z,1.00
2023-04-19T08:53:24.072Z,0.80
2023-04-19T08:56:10.656Z,0.83
2023-04-19T08:58:58.006Z,1.07
2023-04-19T09:01:35.887Z,1.07
2023-04-19T09:04:27.200Z,1.10
2023-04-19T09:06:55.225Z,1.13
2023-04-19T09:09:36.541Z,1.50
2023-04-19T09:12:17.537Z,1.20
2023-04-19T09:15:00.492Z,0.90
2023-04-19T09:17:29.017Z,1.20
2023-04-19T09:19:55.999Z,1.20
2023-04-19T09:22:22.794Z,1.07
2023-04-19T09:27:37.837Z,1.03
2023-04-19T09:30:06.277Z,1.50
2023-04-19T09:32:47.734Z,1.40
2023-04-19T09:35:14.974Z,1.27
2023-04-19T09:38:02.010Z,1.33
2023-04-19T09:40:28.669Z,1.13
2023-04-19T09:43:10.703Z,1.43
2023-04-19T09:45:46.313Z,1.30
2023-04-19T09:48:14.599Z,1.03
2023-04-19T09:51:04.942Z,1.60
2023-04-19T09:53:34.758Z,1.70
2023-04-19T09:56:03.527Z,2.13
2023-04-19T09:58:42.560Z,1.47
2023-04-19T10:01:17.550Z,1.70
2023-04-19T10:03:50.396Z,1.10
2023-04-19T10:08:50.645Z,1.80
2023-04-19T10:11:19.839Z,2.23
2023-04-19T10:13:48.821Z,1.47
2023-04-19T10:16:20.210Z,1.40
2023-04-19T10:18:50.070Z,1.57
2023-04-19T10:21:18.004Z,1.57
2023-04-19T10:23:44.697Z,2.03
2023-04-19T10:26:11.404Z,1.60
2023-04-19T10:28:38.254Z,1.37
2023-04-19T10:31:05.459Z,2.10
2023-04-19T10:33:36.355Z,1.77
2023-04-19T10:36:03.392Z,1.50
2023-04-19T10:38:48.064Z,1.43
2023-04-19T10:41:17.535Z,1.67
2023-04-19T10:44:08.251Z,1.73
2023-04-19T10:46:36.057Z,1.57
2023-04-19T10:49:04.373Z,1.70
2023-04-19T10:51:47.390Z,2.00
2023-04-19T10:54:34.159Z,1.53
2023-04-19T10:57:10.136Z,1.80
2023-04-19T10:59:44.305Z,1.57
2023-04-19T11:02:23.180Z,1.63
2023-04-19T11:04:52.902Z,1.60
2023-04-19T11:07:21.348Z,2.07
2023-04-19T11:09:49.992Z,1.77
2023-04-19T11:12:18.781Z,1.60
2023-04-19T11:14:47.793Z,1.50
2023-04-19T11:17:28.185Z,1.67
2023-04-19T11:20:00.082Z,2.00
2023-04-19T11:22:36.397Z,1.53
2023-04-19T11:25:21.038Z,1.57
2023-04-19T11:27:50.529Z,1.60
2023-04-19T11:30:19.973Z,2.03
2023-04-19T11:32:53.417Z,2.03
2023-04-19T11:35:32.586Z,1.30
2023-04-19T11:37:59.512Z,1.53
2023-04-19T11:40:26.810Z,1.50
2023-04-19T11:43:01.998Z,2.40
2023-04-19T11:45:34.567Z,3.10
2023-04-19T11:48:05.731Z,1.67
2023-04-19T11:50:40.422Z,2.00
2023-04-19T11:53:22.245Z,1.30
2023-04-19T11:55:54.428Z,1.80
2023-04-19T11:58:37.779Z,2.10
2023-04-19T12:01:09.370Z,1.93
2023-04-19T12:03:44.600Z,1.20
2023-04-19T12:06:13.437Z,1.53
2023-04-19T12:08:47.366Z,1.73
2023-04-19T12:11:15.631Z,1.60
2023-04-19T12:13:44.386Z,1.53
2023-04-19T12:16:11.910Z,1.63
2023-04-19T12:18:45.149Z,2.07
2023-04-19T12:21:23.702Z,1.80
2023-04-19T12:23:50.994Z,2.20
2023-04-19T12:26:17.699Z,1.27
2023-04-19T12:28:44.263Z,1.67
2023-04-19T12:31:11.148Z,1.60
2023-04-19T12:33:37.912Z,1.53
2023-04-19T12:36:04.972Z,1.27
2023-04-19T12:38:31.670Z,1.70
2023-04-19T12:40:58.360Z,1.40
2023-04-19T12:43:24.989Z,1.30
2023-04-19T12:45:52.376Z,1.50
2023-04-19T12:48:19.036Z,2.00
2023-04-19T12:50:45.677Z,2.20
2023-04-19T12:53:12.396Z,1.30
2023-04-19T12:55:39.058Z,1.33
2023-04-19T12:58:05.812Z,1.23
2023-04-19T13:00:32.518Z,1.70
2023-04-19T13:02:59.325Z,2.03
2023-04-19T13:05:26.037Z,1.70
2023-04-19T13:07:52.672Z,1.47
2023-04-19T13:10:19.329Z,1.77
2023-04-19T13:12:45.927Z,1.70
2023-04-19T13:15:12.589Z,1.47
2023-04-19T13:17:39.253Z,2.10
2023-04-19T13:20:06.683Z,1.63
2023-04-19T13:22:33.349Z,1.40
2023-04-19T13:25:00.027Z,1.63
2023-04-19T13:27:26.708Z,1.30
2023-04-19T13:29:55.928Z,1.37
2023-04-19T13:32:22.944Z,1.00
2023-04-19T13:34:49.626Z,1.70
2023-04-19T13:37:16.246Z,2.00
2023-04-19T13:39:42.918Z,1.90
2023-04-19T13:42:09.782Z,1.43
2023-04-19T13:44:36.506Z,1.60
2023-04-19T13:47:03.278Z,1.50
2023-04-19T13:49:30.748Z,1.70
2023-04-19T13:51:57.543Z,1.37
2023-04-19T13:54:24.159Z,2.13
2023-04-19T13:56:52.353Z,1.73
2023-04-19T13:59:19.218Z,1.60
2023-04-19T14:01:45.955Z,1.30
2023-04-19T14:04:12.835Z,1.63
2023-04-19T14:06:39.679Z,1.77
2023-04-19T14:09:06.731Z,1.53
2023-04-19T14:11:33.526Z,1.87
2023-04-19T14:14:00.559Z,1.30
2023-04-19T14:16:27.262Z,1.47
2023-04-19T14:18:53.894Z,1.50
2023-04-19T14:21:20.597Z,1.80
2023-04-19T14:23:47.291Z,1.60
2023-04-19T14:26:14.561Z,1.43
2023-04-19T14:28:41.174Z,1.70
2023-04-19T14:31:07.813Z,1.70
2023-04-19T14:33:34.599Z,1.63
2023-04-19T14:36:01.405Z,1.40
2023-04-19T14:38:28.024Z,1.60
2023-04-19T14:40:54.654Z,1.50
2023-04-19T14:43:21.275Z,1.50
2023-04-19T14:45:49.949Z,1.67
2023-04-19T14:48:16.779Z,1.80
2023-04-19T14:50:43.507Z,1.40
2023-04-19T14:53:10.206Z,1.93
2023-04-19T14:55:40.148Z,1.40
2023-04-19T14:58:06.791Z,1.60
2023-04-19T15:00:33.813Z,1.80
2023-04-19T15:03:01.628Z,1.60
2023-04-19T15:05:28.622Z,1.97
2023-04-19T15:07:55.431Z,1.73
2023-04-19T15:10:22.105Z,1.40
2023-04-19T15:12:48.789Z,1.47
2023-04-19T15:15:15.697Z,1.73
2023-04-19T15:17:42.966Z,1.53
2023-04-19T15:20:09.828Z,1.70
2023-04-19T15:22:36.436Z,2.97
2023-04-19T15:25:03.742Z,1.27
2023-04-19T15:27:31.317Z,1.30
2023-04-19T15:29:57.978Z,1.90
2023-04-19T15:32:24.756Z,1.47
2023-04-19T15:34:51.566Z,1.87
2023-04-19T15:37:18.171Z,1.60
2023-04-19T15:39:44.833Z,1.73
2023-04-19T15:42:11.524Z,1.67
2023-04-19T15:44:38.142Z,1.90
2023-04-19T15:47:05.076Z,1.53
2023-04-19T15:49:31.718Z,1.40
2023-04-19T15:51:58.381Z,2.10
2023-04-19T15:54:27.139Z,1.30
2023-04-19T15:56:54.586Z,2.40
2023-04-19T15:59:21.206Z,1.80
2023-04-19T16:01:47.976Z,1.37
2023-04-19T16:04:15.235Z,1.70
2023-04-19T16:06:42.202Z,1.67
2023-04-19T16:09:08.998Z,2.33
2023-04-19T16:11:35.659Z,1.90
2023-04-19T16:14:02.259Z,1.70
2023-04-19T16:16:32.898Z,1.10
2023-04-19T16:19:00.072Z,1.80
2023-04-19T16:21:28.689Z,1.20
2023-04-19T16:23:59.491Z,1.37
2023-04-19T16:26:26.632Z,1.40
2023-04-19T16:28:53.436Z,1.80
2023-04-19T16:31:20.101Z,1.60
2023-04-19T16:33:46.740Z,1.03
2023-04-19T16:36:13.396Z,1.60
2023-04-19T16:38:39.988Z,1.20
2023-04-19T16:41:06.651Z,1.40
2023-04-19T16:43:33.384Z,1.70
2023-04-19T16:46:00.066Z,1.40
2023-04-19T16:48:27.036Z,2.07
2023-04-19T16:50:53.706Z,1.57
2023-04-19T16:53:20.739Z,2.30
2023-04-19T16:55:47.415Z,1.40
2023-04-19T16:58:14.338Z,1.40
2023-04-19T17:00:41.200Z,1.50
2023-04-19T17:03:09.445Z,1.63
2023-04-19T17:05:36.183Z,1.47
2023-04-19T17:08:02.833Z,1.73
2023-04-19T17:10:29.473Z,2.03
2023-04-19T17:12:56.350Z,1.93
2023-04-19T17:15:23.136Z,2.07
2023-04-19T17:17:49.796Z,1.90
2023-04-19T17:20:16.566Z,1.80
2023-04-19T17:22:43.264Z,2.13
2023-04-19T17:25:09.991Z,2.10
2023-04-19T17:27:36.627Z,1.60
2023-04-19T17:30:03.381Z,1.57
2023-04-19T17:32:29.986Z,1.77
2023-04-19T17:34:56.773Z,1.70
2023-04-19T17:37:23.384Z,1.60
2023-04-19T17:39:50.117Z,1.63
2023-04-19T17:42:16.751Z,1.30
2023-04-19T17:44:43.365Z,1.90
2023-04-19T17:47:09.994Z,2.37
2023-04-19T17:49:36.628Z,1.47
2023-04-19T17:52:03.293Z,1.70
2023-04-19T17:54:29.969Z,2.57
2023-04-19T17:56:59.204Z,2.30
2023-04-19T17:59:25.818Z,1.57
2023-04-19T18:01:52.501Z,1.30
2023-04-19T18:04:20.092Z,1.80
2023-04-19T18:06:47.007Z,1.70
2023-04-19T18:09:14.022Z,1.40
2023-04-19T18:11:41.032Z,1.80
2023-04-19T18:14:07.825Z,1.97
2023-04-19T18:16:34.882Z,1.43
2023-04-19T18:19:01.566Z,1.93
2023-04-19T18:21:28.835Z,1.90
2023-04-19T18:23:56.266Z,1.53
2023-04-19T18:26:23.108Z,1.73
2023-04-19T18:28:49.887Z,1.80
2023-04-19T18:31:16.545Z,2.10
2023-04-19T18:33:43.167Z,1.77
2023-04-19T18:36:09.804Z,2.73
2023-04-19T18:38:36.487Z,1.50
2023-04-19T18:41:03.068Z,1.60
2023-04-19T18:43:30.970Z,1.50
2023-04-19T18:45:59.078Z,1.50
2023-04-19T18:48:28.150Z,1.50
2023-04-19T18:50:55.132Z,2.07
2023-04-19T18:53:21.759Z,2.10
2023-04-19T18:55:48.642Z,1.33
2023-04-19T18:58:15.317Z,1.80
2023-04-19T19:00:42.089Z,1.90
2023-04-19T19:03:15.900Z,1.80
2023-04-19T19:05:55.898Z,2.00
2023-04-19T19:08:22.747Z,1.90
2023-04-19T19:11:14.208Z,2.20
2023-04-19T19:13:36.404Z,1.70
2023-04-19T19:16:04.782Z,1.80
2023-04-19T19:18:31.974Z,1.70
2023-04-19T19:21:00.286Z,1.90
2023-04-19T19:25:58.301Z,1.70
2023-04-19T19:28:25.338Z,1.60
2023-04-19T19:30:52.164Z,2.03
2023-04-19T19:33:20.056Z,1.93
2023-04-19T19:35:46.832Z,2.30
2023-04-19T19:38:13.493Z,1.93
2023-04-19T19:41:04.079Z,2.10
2023-04-19T19:43:27.039Z,1.73
2023-04-19T19:45:53.754Z,2.17
2023-04-19T19:48:20.388Z,2.33
2023-04-19T19:51:17.292Z,2.30
2023-04-19T19:53:34.054Z,1.90
2023-04-19T19:56:00.725Z,2.30
2023-04-19T19:58:48.425Z,1.67
2023-04-19T20:01:15.671Z,2.20
2023-04-19T20:03:42.624Z,2.30
2023-04-19T20:07:03.022Z,1.80
2023-04-19T20:08:58.485Z,2.53
2023-04-19T20:11:25.577Z,1.70
2023-04-19T20:13:52.365Z,2.17
2023-04-19T20:16:19.729Z,2.80
2023-04-19T20:18:49.108Z,1.57
2023-04-19T20:21:17.809Z,1.70
2023-04-19T20:23:44.482Z,1.73
2023-04-19T20:26:11.087Z,2.10
2023-04-19T20:28:38.286Z,1.93
2023-04-19T20:31:04.972Z,1.97
2023-04-19T20:33:31.723Z,1.80
2023-04-19T20:36:00.540Z,1.80
2023-04-19T20:38:27.203Z,2.30
2023-04-19T20:40:53.831Z,2.60
2023-04-19T20:43:20.510Z,2.40
2023-04-19T20:45:47.449Z,2.50
2023-04-19T20:48:14.125Z,2.80
2023-04-19T20:50:41.183Z,2.47
2023-04-19T20:53:07.913Z,2.20
2023-04-19T20:55:35.012Z,2.60
2023-04-19T20:58:02.518Z,2.20
2023-04-19T21:00:29.151Z,1.80
2023-04-19T21:02:56.088Z,2.17
2023-04-19T21:05:22.971Z,2.63
2023-04-19T21:07:49.622Z,1.83
2023-04-19T21:10:17.182Z,2.20
2023-04-19T21:12:43.858Z,1.93
2023-04-19T21:15:12.046Z,2.33
2023-04-19T21:17:38.955Z,2.60
2023-04-19T21:20:12.000Z,1.73
2023-04-19T21:22:42.872Z,1.90
2023-04-19T21:25:10.855Z,2.67
2023-04-19T21:27:37.653Z,2.30
2023-04-19T21:30:08.551Z,1.90
2023-04-19T21:32:35.626Z,1.40
2023-04-19T21:35:03.968Z,1.77
2023-04-19T21:37:31.070Z,2.00
2023-04-19T21:39:57.795Z,1.63
2023-04-19T21:42:24.404Z,1.43
2023-04-19T21:44:51.034Z,1.90
2023-04-19T21:47:18.197Z,1.93
2023-04-19T21:49:45.524Z,2.00
2023-04-19T21:52:12.531Z,1.97
2023-04-19T21:54:39.126Z,1.77
2023-04-19T21:57:05.734Z,1.83
2023-04-19T21:59:35.320Z,2.10
2023-04-19T22:02:01.995Z,1.90
2023-04-19T22:04:30.982Z,2.13
2023-04-19T22:07:01.995Z,2.30
2023-04-19T22:09:29.565Z,1.70
2023-04-19T22:11:56.181Z,2.03
2023-04-19T22:14:25.576Z,1.60
2023-04-19T22:16:53.750Z,1.60
2023-04-19T22:19:21.105Z,1.23
2023-04-19T22:21:47.868Z,2.03
2023-04-19T22:24:14.679Z,1.60
2023-04-19T22:26:41.308Z,2.10
2023-04-19T22:29:07.971Z,1.70
2023-04-19T22:31:34.860Z,1.90
2023-04-19T22:34:01.816Z,2.00
2023-04-19T22:36:28.488Z,1.80
2023-04-19T22:38:55.119Z,1.83
2023-04-19T22:41:21.767Z,1.80
2023-04-19T22:43:48.523Z,1.40
2023-04-19T22:46:15.262Z,2.00
2023-04-19T22:48:42.571Z,1.90
2023-04-19T22:51:09.491Z,1.37
2023-04-19T22:53:37.349Z,1.40
2023-04-19T22:56:04.665Z,1.67
2023-04-19T22:58:31.938Z,1.20
2023-04-19T23:00:59.098Z,1.47
2023-04-19T23:03:25.914Z,1.30
2023-04-19T23:05:54.142Z,1.60
2023-04-19T23:08:20.866Z,1.37
2023-04-19T23:10:47.689Z,1.10
2023-04-19T23:13:15.703Z,1.13
2023-04-19T23:15:43.046Z,1.60
2023-04-19T23:18:09.840Z,1.57
2023-04-19T23:20:36.913Z,1.23
2023-04-19T23:23:03.656Z,1.13
2023-04-19T23:25:30.344Z,1.43
2023-04-19T23:27:57.038Z,1.50
2023-04-19T23:30:24.035Z,1.20
2023-04-19T23:32:50.866Z,1.53
2023-04-19T23:35:17.691Z,1.97
2023-04-19T23:37:44.303Z,1.50
2023-04-19T23:40:11.122Z,1.60
2023-04-19T23:42:40.813Z,1.20
2023-04-19T23:45:08.890Z,2.00
2023-04-19T23:47:35.701Z,1.10
2023-04-19T23:50:02.365Z,1.53
2023-04-19T23:52:28.969Z,1.20
2023-04-19T23:54:55.833Z,1.50
2023-04-19T23:57:22.787Z,1.63
2023-04-19T23:59:50.424Z,1.47
